Time;durP1;ratioP1;P1;durP2;ratioP2;P2;SDS_P1;SDS_P2;PMS_P1;PMS_P2;Temp;Humidity;BMP_temperature;BMP_pressure;BME280_temperature;BME280_humidity;BME280_pressure;Samples;Min_cycle;Max_cycle;Signal;HPM_P1;HPM_P2
2022/01/09 00:00:29;;;;;;;1.80;0.70;;;6.30;99.90;;;;;;5030557;28;20195;-77
2022/01/09 00:02:56;;;;;;;1.10;0.70;;;6.30;99.90;;;;;;5032051;28;20185;-77
2022/01/09 00:05:22;;;;;;;1.60;0.82;;;6.40;99.90;;;;;;5026742;28;20278;-76
2022/01/09 00:07:49;;;;;;;1.48;0.70;;;6.40;99.90;;;;;;5023410;28;20663;-77
2022/01/09 00:10:15;;;;;;;1.60;0.75;;;6.40;99.90;;;;;;5028124;28;20260;-77
2022/01/09 00:12:41;;;;;;;1.25;0.60;;;6.40;99.90;;;;;;5010915;28;20194;-77
2022/01/09 00:15:08;;;;;;;1.10;0.60;;;6.40;99.90;;;;;;5012160;28;20194;-77
2022/01/09 00:17:34;;;;;;;2.17;0.77;;;6.40;99.90;;;;;;5010779;28;20171;-77
2022/01/09 00:20:00;;;;;;;1.80;0.80;;;6.40;99.90;;;;;;5011790;28;20166;-77
2022/01/09 00:22:37;;;;;;;1.30;0.70;;;6.40;99.90;;;;;;5011887;28;20731;-77
2022/01/09 00:25:05;;;;;;;1.55;0.70;;;6.40;99.90;;;;;;5010385;28;20178;-77
2022/01/09 00:27:31;;;;;;;1.20;0.70;;;6.40;99.90;;;;;;4993492;28;20630;-77
2022/01/09 00:29:57;;;;;;;1.30;0.70;;;6.40;99.90;;;;;;5009327;28;20205;-78
2022/01/09 00:32:23;;;;;;;2.60;0.60;;;6.40;99.90;;;;;;5011562;28;20608;-77
2022/01/09 00:34:49;;;;;;;1.40;0.70;;;6.40;99.90;;;;;;5011101;28;20574;-77
2022/01/09 00:37:15;;;;;;;3.00;0.80;;;6.40;99.90;;;;;;5010651;28;20262;-78
2022/01/09 00:39:40;;;;;;;1.10;0.63;;;6.40;99.90;;;;;;5013043;28;20814;-76
2022/01/09 00:42:06;;;;;;;0.97;0.50;;;6.40;99.90;;;;;;4993346;28;20198;-77
2022/01/09 00:44:32;;;;;;;0.97;0.50;;;6.40;99.90;;;;;;5011056;28;20512;-76
2022/01/09 00:47:00;;;;;;;0.80;0.40;;;6.50;99.90;;;;;;4993137;28;20177;-76
2022/01/09 00:49:28;;;;;;;1.20;0.50;;;6.50;99.90;;;;;;5011092;28;20293;-76
2022/01/09 00:51:54;;;;;;;1.00;0.50;;;6.50;99.90;;;;;;5015317;28;20180;-76
2022/01/09 00:54:20;;;;;;;0.90;0.40;;;6.60;99.90;;;;;;5022360;28;20179;-76
2022/01/09 00:56:46;;;;;;;1.00;0.40;;;6.60;99.90;;;;;;5029647;28;20570;-76
2022/01/09 00:59:11;;;;;;;1.03;0.40;;;6.60;99.90;;;;;;5021292;28;20199;-76
2022/01/09 01:01:37;;;;;;;0.90;0.40;;;6.70;99.90;;;;;;5031429;28;20177;-76
2022/01/09 01:04:03;;;;;;;0.90;0.40;;;6.70;99.90;;;;;;5032263;28;20193;-76
2022/01/09 01:06:29;;;;;;;1.60;0.40;;;6.70;99.90;;;;;;5036286;28;20166;-76
2022/01/09 01:08:55;;;;;;;1.20;0.40;;;6.70;99.90;;;;;;5039560;28;20566;-76
2022/01/09 01:11:20;;;;;;;1.17;0.40;;;6.70;99.90;;;;;;5031371;28;20260;-77
2022/01/09 01:13:46;;;;;;;0.80;0.40;;;6.70;99.90;;;;;;5030709;28;20265;-76
2022/01/09 01:16:12;;;;;;;0.90;0.40;;;6.70;99.90;;;;;;5033645;28;20193;-76
2022/01/09 01:18:38;;;;;;;1.00;0.40;;;6.70;99.90;;;;;;5030258;28;20622;-76
2022/01/09 01:21:04;;;;;;;0.90;0.40;;;6.80;99.90;;;;;;5030976;28;20166;-76
2022/01/09 01:23:29;;;;;;;0.90;0.40;;;6.80;99.90;;;;;;5030965;28;20289;-76
2022/01/09 01:26:00;;;;;;;1.20;0.53;;;6.80;99.90;;;;;;5030342;28;20178;-76
2022/01/09 01:28:26;;;;;;;1.10;0.60;;;6.80;99.90;;;;;;5058540;22;20694;-77
2022/01/09 01:30:52;;;;;;;1.13;0.40;;;6.80;99.90;;;;;;5047347;28;20169;-76
2022/01/09 01:33:18;;;;;;;1.10;0.50;;;6.80;99.90;;;;;;5042628;28;20247;-76
2022/01/09 01:35:44;;;;;;;0.80;0.40;;;6.80;99.90;;;;;;5022644;28;20172;-76
2022/01/09 01:38:10;;;;;;;0.90;0.40;;;6.90;99.90;;;;;;5041313;28;20522;-76
2022/01/09 01:40:36;;;;;;;1.20;0.47;;;6.90;99.90;;;;;;5051069;28;20173;-76
2022/01/09 01:43:02;;;;;;;3.23;0.77;;;7.00;99.90;;;;;;5046237;28;20180;-78
2022/01/09 01:45:27;;;;;;;1.20;0.50;;;7.00;99.90;;;;;;5043049;28;20585;-78
2022/01/09 01:47:53;;;;;;;1.50;0.50;;;7.00;99.90;;;;;;5028539;28;20218;-78
2022/01/09 01:50:20;;;;;;;1.70;0.80;;;7.00;99.90;;;;;;5042718;28;20201;-78
2022/01/09 01:52:50;;;;;;;1.48;0.70;;;7.00;99.90;;;;;;5052903;28;20587;-78
2022/01/09 01:55:17;;;;;;;1.70;0.75;;;7.10;99.90;;;;;;5045469;28;20178;-75
2022/01/09 01:57:44;;;;;;;2.00;0.73;;;7.10;99.90;;;;;;5058865;28;20195;-78
2022/01/09 02:00:13;;;;;;;2.10;0.80;;;7.10;99.90;;;;;;5052323;28;20172;-76
2022/01/09 02:02:39;;;;;;;1.48;0.50;;;7.10;99.90;;;;;;5053993;28;20256;-76
2022/01/09 02:05:05;;;;;;;1.20;0.50;;;7.20;99.90;;;;;;5054011;28;20226;-77
2022/01/09 02:07:32;;;;;;;1.65;0.50;;;7.20;99.90;;;;;;5045033;28;20588;-77
2022/01/09 02:09:58;;;;;;;2.00;0.70;;;7.30;99.90;;;;;;5041509;28;20266;-77
2022/01/09 02:12:24;;;;;;;1.15;0.70;;;7.30;99.90;;;;;;5043984;28;20172;-76
2022/01/09 02:14:50;;;;;;;5.68;0.90;;;7.40;99.90;;;;;;5044628;28;20184;-76
2022/01/09 02:17:20;;;;;;;1.50;0.87;;;7.50;99.90;;;;;;5048837;28;20686;-76
2022/01/09 02:20:04;;;;;;;2.13;0.70;;;7.50;99.90;;;;;;5053313;28;20510;-76
2022/01/09 02:22:33;;;;;;;1.20;0.50;;;7.50;99.90;;;;;;5053603;28;20207;-76
2022/01/09 02:24:59;;;;;;;1.00;0.50;;;7.50;99.90;;;;;;5053645;28;20511;-77
2022/01/09 02:27:25;;;;;;;2.03;0.50;;;7.60;99.90;;;;;;5052182;28;20200;-76
2022/01/09 02:29:50;;;;;;;0.90;0.40;;;7.50;99.90;;;;;;5052006;28;20656;-76
2022/01/09 02:32:17;;;;;;;0.90;0.40;;;7.50;99.90;;;;;;5052572;28;20603;-76
2022/01/09 02:34:47;;;;;;;1.00;0.40;;;7.50;99.90;;;;;;5057384;28;20529;-76
2022/01/09 02:37:13;;;;;;;0.90;0.40;;;7.40;99.90;;;;;;5051848;28;20170;-76
2022/01/09 02:39:39;;;;;;;1.10;0.70;;;7.40;99.90;;;;;;5035086;28;20272;-77
2022/01/09 02:42:16;;;;;;;1.47;0.50;;;7.30;99.90;;;;;;5052431;28;20568;-77
2022/01/09 02:44:41;;;;;;;2.38;0.50;;;7.30;99.90;;;;;;5056155;28;20559;-76
2022/01/09 02:47:07;;;;;;;1.60;0.40;;;7.30;99.90;;;;;;5064602;28;20180;-76
2022/01/09 02:49:33;;;;;;;1.77;0.60;;;7.30;99.90;;;;;;5059454;28;20212;-76
2022/01/09 02:51:59;;;;;;;2.03;0.47;;;7.20;99.90;;;;;;5057157;28;20503;-76
2022/01/09 02:57:09;;;;;;;1.88;0.60;;;7.00;99.90;;;;;;5057642;28;20195;-76
2022/01/09 02:59:35;;;;;;;2.30;0.60;;;6.90;99.90;;;;;;5054964;28;20188;-76
2022/01/09 03:02:01;;;;;;;1.30;0.60;;;6.90;99.90;;;;;;5054199;28;20215;-76
2022/01/09 03:04:26;;;;;;;1.57;0.50;;;6.80;99.90;;;;;;5053630;28;20176;-76
2022/01/09 03:06:52;;;;;;;2.40;0.80;;;6.80;99.90;;;;;;5053507;28;20256;-76
2022/01/09 03:09:18;;;;;;;2.37;0.73;;;6.80;99.90;;;;;;5052075;28;20207;-76
2022/01/09 03:11:47;;;;;;;2.35;0.80;;;6.80;99.90;;;;;;5057641;28;20173;-76
2022/01/09 03:14:12;;;;;;;3.83;0.80;;;6.80;99.90;;;;;;5052719;28;20185;-76
2022/01/09 03:16:38;;;;;;;3.90;1.00;;;6.90;99.90;;;;;;5052857;28;20166;-76
2022/01/09 03:19:04;;;;;;;8.33;1.30;;;6.90;99.90;;;;;;5052767;28;20722;-76
2022/01/09 03:21:30;;;;;;;5.00;1.37;;;6.90;99.90;;;;;;5052549;28;20161;-76
2022/01/09 03:23:55;;;;;;;3.13;1.10;;;6.90;99.90;;;;;;5053000;28;20636;-76
2022/01/09 03:26:21;;;;;;;9.40;1.63;;;7.00;99.90;;;;;;5052606;28;20234;-76
2022/01/09 03:28:47;;;;;;;5.00;1.53;;;7.10;99.90;;;;;;5052148;28;20204;-77
2022/01/09 03:31:12;;;;;;;4.33;1.30;;;7.10;99.90;;;;;;5034206;28;20168;-76
2022/01/09 03:33:38;;;;;;;7.20;2.27;;;7.10;99.90;;;;;;5052108;28;20559;-76
2022/01/09 03:36:04;;;;;;;5.57;1.50;;;7.10;99.90;;;;;;5052311;28;20173;-76
2022/01/09 03:38:30;;;;;;;4.68;1.38;;;7.20;99.90;;;;;;5050672;28;20193;-76
2022/01/09 03:40:55;;;;;;;8.83;1.33;;;7.20;99.90;;;;;;5050451;28;20177;-76
2022/01/09 03:43:21;;;;;;;6.70;1.17;;;7.20;99.90;;;;;;5050864;28;20263;-76
2022/01/09 03:45:47;;;;;;;6.97;1.70;;;7.20;99.90;;;;;;5052101;28;20575;-76
2022/01/09 03:48:12;;;;;;;10.63;3.30;;;7.30;99.90;;;;;;5056722;28;20216;-76
2022/01/09 03:50:38;;;;;;;4.43;1.27;;;7.30;99.90;;;;;;5051208;28;20176;-76
2022/01/09 03:53:04;;;;;;;12.83;3.40;;;7.20;99.90;;;;;;5050591;28;20256;-76
2022/01/09 03:55:30;;;;;;;6.50;1.30;;;7.20;99.90;;;;;;5050640;28;20168;-76
2022/01/09 03:57:56;;;;;;;7.00;1.50;;;7.20;99.90;;;;;;5050290;28;20556;-76
2022/01/09 04:00:24;;;;;;;6.17;1.67;;;7.20;99.90;;;;;;5051333;28;20624;-76
2022/01/09 04:02:50;;;;;;;6.97;1.90;;;7.20;99.90;;;;;;5051745;28;20163;-76
2022/01/09 04:05:16;;;;;;;8.93;2.28;;;7.20;99.90;;;;;;5051733;28;20187;-76
2022/01/09 04:07:42;;;;;;;7.53;2.43;;;7.30;99.90;;;;;;5051496;28;20195;-76
2022/01/09 04:10:08;;;;;;;9.97;2.27;;;7.30;99.90;;;;;;5051274;28;20528;-76
2022/01/09 04:12:47;;;;;;;25.10;3.58;;;7.30;99.90;;;;;;5051708;28;20165;-76
2022/01/09 04:15:15;;;;;;;10.32;3.08;;;7.30;99.90;;;;;;5051642;28;20176;-76
2022/01/09 04:20:15;;;;;;;11.70;3.63;;;7.40;99.90;;;;;;5051146;28;20164;-76
2022/01/09 04:22:41;;;;;;;9.23;3.20;;;7.50;99.90;;;;;;5051804;28;20172;-76
2022/01/09 04:25:07;;;;;;;13.93;3.73;;;7.50;99.90;;;;;;5056389;28;20253;-76
2022/01/09 04:27:34;;;;;;;13.18;4.07;;;7.50;99.90;;;;;;5051170;28;20570;-76
2022/01/09 04:30:00;;;;;;;16.92;4.85;;;7.60;99.90;;;;;;5049808;28;20830;-76
2022/01/09 04:32:26;;;;;;;11.27;3.60;;;7.60;99.90;;;;;;5051583;28;20177;-76
2022/01/09 04:34:52;;;;;;;14.73;4.23;;;7.60;99.90;;;;;;5051277;28;20710;-76
2022/01/09 04:37:18;;;;;;;14.00;4.27;;;7.60;99.90;;;;;;5051237;28;20791;-76
2022/01/09 04:39:47;;;;;;;19.30;3.83;;;7.70;99.90;;;;;;5051036;28;20165;-76
2022/01/09 04:42:13;;;;;;;11.68;3.80;;;7.70;99.90;;;;;;5050257;28;20169;-76
2022/01/09 04:44:38;;;;;;;16.63;3.58;;;7.70;99.90;;;;;;5051317;28;20184;-76
2022/01/09 04:47:12;;;;;;;10.20;2.80;;;7.80;99.90;;;;;;5051357;28;20661;-76
2022/01/09 04:49:40;;;;;;;15.15;3.03;;;7.70;99.90;;;;;;5049567;28;20205;-76
2022/01/09 04:52:11;;;;;;;15.52;3.47;;;7.80;99.90;;;;;;5051245;28;20173;-76
2022/01/09 04:54:37;;;;;;;14.18;3.30;;;7.70;99.90;;;;;;5050080;28;20173;-76
2022/01/09 04:57:03;;;;;;;17.83;3.13;;;7.80;99.90;;;;;;5051317;28;20220;-76
2022/01/09 04:59:29;;;;;;;10.25;3.05;;;7.80;99.90;;;;;;5051151;28;20276;-76
2022/01/09 05:01:55;;;;;;;16.55;2.83;;;7.80;99.90;;;;;;5061071;28;20173;-76
2022/01/09 05:04:21;;;;;;;19.03;3.83;;;7.80;99.90;;;;;;5053985;28;20176;-76
2022/01/09 05:06:46;;;;;;;14.53;3.10;;;7.80;99.90;;;;;;5053944;28;20272;-76
2022/01/09 05:09:13;;;;;;;14.70;3.10;;;7.70;99.90;;;;;;5054892;28;20610;-77
2022/01/09 05:11:38;;;;;;;11.88;3.60;;;7.80;99.90;;;;;;5054622;28;20189;-77
2022/01/09 05:14:04;;;;;;;8.83;2.73;;;7.80;99.90;;;;;;5053902;28;20220;-76
2022/01/09 05:16:30;;;;;;;12.13;4.50;;;7.80;99.90;;;;;;5037195;28;20560;-76
2022/01/09 05:19:05;;;;;;;10.67;3.40;;;7.80;99.90;;;;;;5055850;28;20611;-76
2022/01/09 05:21:31;;;;;;;15.13;2.72;;;7.80;99.90;;;;;;5036399;28;20571;-76
2022/01/09 05:23:57;;;;;;;13.20;2.77;;;7.80;99.90;;;;;;5054888;28;20178;-76
2022/01/09 05:26:23;;;;;;;10.77;3.00;;;7.80;99.90;;;;;;5053686;28;20567;-76
2022/01/09 05:28:49;;;;;;;10.83;2.60;;;7.80;99.90;;;;;;5054803;28;20205;-76
2022/01/09 05:31:14;;;;;;;11.90;2.97;;;7.80;99.90;;;;;;5054570;28;20196;-76
2022/01/09 05:33:40;;;;;;;13.67;2.43;;;7.90;99.90;;;;;;5053563;28;20215;-76
2022/01/09 05:36:06;;;;;;;8.73;3.10;;;7.80;99.90;;;;;;5053490;28;20200;-76
2022/01/09 05:38:32;;;;;;;8.20;2.47;;;7.80;99.90;;;;;;5058507;28;20192;-76
2022/01/09 05:40:58;;;;;;;5.80;2.58;;;7.90;99.90;;;;;;5054189;28;20173;-76
2022/01/09 05:43:24;;;;;;;6.35;2.25;;;7.90;99.90;;;;;;5054649;28;20177;-76
2022/01/09 05:45:50;;;;;;;9.63;2.63;;;7.90;99.90;;;;;;5054196;28;20507;-76
2022/01/09 05:48:17;;;;;;;12.40;2.30;;;7.80;99.90;;;;;;5036124;28;20643;-76
2022/01/09 05:50:43;;;;;;;10.35;3.50;;;7.80;99.90;;;;;;5053877;28;20169;-76
2022/01/09 05:53:09;;;;;;;8.07;2.60;;;7.80;99.90;;;;;;5054096;28;20181;-76
2022/01/09 05:55:35;;;;;;;6.40;1.83;;;7.80;99.90;;;;;;5053039;28;20180;-76
2022/01/09 05:58:01;;;;;;;11.07;3.50;;;7.80;99.90;;;;;;5053962;28;20591;-76
2022/01/09 06:00:27;;;;;;;8.37;2.60;;;7.90;99.90;;;;;;5053686;28;20974;-76
2022/01/09 06:02:52;;;;;;;7.23;1.70;;;7.80;99.90;;;;;;5053884;28;20621;-76
2022/01/09 06:05:18;;;;;;;11.27;1.73;;;7.80;99.90;;;;;;5053896;28;20307;-76
2022/01/09 06:07:44;;;;;;;7.73;1.90;;;7.80;99.90;;;;;;5052582;28;20599;-76
2022/01/09 06:10:10;;;;;;;7.07;2.20;;;7.80;99.90;;;;;;5053245;28;20992;-75
2022/01/09 06:12:36;;;;;;;8.38;1.75;;;7.80;99.90;;;;;;5053616;28;20576;-75
2022/01/09 06:15:03;;;;;;;8.60;2.05;;;7.90;99.90;;;;;;5063757;28;20185;-75
2022/01/09 06:17:33;;;;;;;9.80;2.08;;;7.90;99.90;;;;;;5053720;28;20166;-75
2022/01/09 06:19:59;;;;;;;8.13;2.53;;;7.90;99.90;;;;;;5053254;28;20643;-75
2022/01/09 06:22:25;;;;;;;5.67;1.77;;;7.80;99.90;;;;;;5053639;28;20165;-75
2022/01/09 06:24:51;;;;;;;6.93;1.97;;;7.80;99.90;;;;;;5053463;28;20196;-75
2022/01/09 06:27:17;;;;;;;5.95;1.70;;;7.80;99.90;;;;;;5052127;28;20226;-76
2022/01/09 06:29:43;;;;;;;5.38;1.30;;;7.80;99.90;;;;;;5051864;28;20707;-75
2022/01/09 06:32:09;;;;;;;8.90;1.53;;;7.80;99.90;;;;;;5053343;28;20197;-75
2022/01/09 06:34:35;;;;;;;11.70;1.83;;;7.80;99.90;;;;;;5053466;28;20571;-75
2022/01/09 06:37:01;;;;;;;6.73;2.03;;;7.80;99.90;;;;;;5035285;28;20625;-75
2022/01/09 06:39:27;;;;;;;8.63;2.10;;;7.80;99.90;;;;;;5053082;28;20985;-75
2022/01/09 06:41:52;;;;;;;5.53;1.53;;;7.70;99.90;;;;;;5052789;28;20222;-75
2022/01/09 06:44:18;;;;;;;8.30;1.77;;;7.80;99.90;;;;;;5053247;28;20195;-75
2022/01/09 06:46:44;;;;;;;7.77;1.93;;;7.80;99.90;;;;;;5052887;28;20687;-75
2022/01/09 06:49:10;;;;;;;8.27;1.63;;;7.70;99.90;;;;;;5035219;28;20220;-75
2022/01/09 06:51:36;;;;;;;8.57;1.90;;;7.70;99.90;;;;;;5059148;28;20169;-75
2022/01/09 06:54:02;;;;;;;12.80;3.00;;;7.70;99.90;;;;;;5035381;28;20294;-75
2022/01/09 06:56:28;;;;;;;6.82;2.67;;;7.70;99.90;;;;;;5052979;28;20883;-75
2022/01/09 06:58:54;;;;;;;7.10;2.23;;;7.70;99.90;;;;;;5052859;28;20207;-75
2022/01/09 07:01:19;;;;;;;12.27;2.70;;;7.70;99.90;;;;;;5051547;28;20541;-75
2022/01/09 07:03:46;;;;;;;5.10;1.30;;;7.70;99.90;;;;;;5051524;28;20591;-75
2022/01/09 07:06:12;;;;;;;9.50;1.97;;;7.70;99.90;;;;;;5051903;28;20173;-75
2022/01/09 07:08:39;;;;;;;8.47;1.80;;;7.70;99.90;;;;;;5053420;28;20584;-75
2022/01/09 07:11:05;;;;;;;6.47;2.10;;;7.80;99.90;;;;;;5053629;28;20571;-75
2022/01/09 07:13:31;;;;;;;5.10;2.22;;;7.80;99.90;;;;;;5054889;28;20235;-75
2022/01/09 07:15:58;;;;;;;8.77;1.83;;;7.80;99.90;;;;;;5055209;28;20507;-75
2022/01/09 07:18:24;;;;;;;9.93;2.00;;;7.80;99.90;;;;;;5053664;28;20193;-75
2022/01/09 07:20:53;;;;;;;6.57;1.60;;;7.80;99.90;;;;;;5053987;28;20169;-75
2022/01/09 07:23:19;;;;;;;7.00;1.67;;;7.80;99.90;;;;;;5053357;28;20586;-75
2022/01/09 07:25:45;;;;;;;7.17;2.10;;;7.80;99.90;;;;;;5052288;28;20169;-75
2022/01/09 07:28:11;;;;;;;6.20;2.00;;;7.80;99.90;;;;;;5055125;28;20696;-74
2022/01/09 07:30:37;;;;;;;8.37;2.23;;;7.80;99.90;;;;;;5058413;28;20169;-74
2022/01/09 07:33:04;;;;;;;11.18;2.70;;;7.90;99.90;;;;;;5056536;28;20188;-74
2022/01/09 07:35:30;;;;;;;8.60;1.85;;;7.80;99.90;;;;;;5055189;28;20605;-74
2022/01/09 07:37:56;;;;;;;5.68;1.67;;;7.90;99.90;;;;;;5052963;28;20197;-74
2022/01/09 07:40:23;;;;;;;8.48;1.95;;;7.90;99.90;;;;;;5037383;28;20177;-74
2022/01/09 07:42:49;;;;;;;10.52;2.10;;;7.90;99.90;;;;;;5048248;28;20161;-74
2022/01/09 07:45:17;;;;;;;7.93;1.80;;;7.90;99.90;;;;;;5047485;28;20231;-75
2022/01/09 07:47:42;;;;;;;7.25;1.33;;;7.90;99.90;;;;;;5035895;28;20201;-74
2022/01/09 07:50:10;;;;;;;7.30;1.70;;;7.90;99.90;;;;;;5036787;28;20201;-74
2022/01/09 07:52:36;;;;;;;4.18;1.35;;;7.90;99.90;;;;;;5034933;28;20165;-74
2022/01/09 07:55:04;;;;;;;7.22;2.38;;;7.90;99.90;;;;;;5035397;28;20162;-74
2022/01/09 07:57:31;;;;;;;6.43;1.85;;;7.90;99.90;;;;;;5037724;28;20229;-74
2022/01/09 07:59:58;;;;;;;7.65;1.98;;;7.90;99.90;;;;;;5036833;28;20177;-74
2022/01/09 08:02:26;;;;;;;7.15;1.60;;;8.00;99.90;;;;;;5020202;28;20676;-74
2022/01/09 08:04:52;;;;;;;4.90;1.67;;;7.90;99.90;;;;;;5047750;28;20184;-74
2022/01/09 08:07:17;;;;;;;10.53;1.43;;;8.00;99.90;;;;;;5040579;28;20174;-75
2022/01/09 08:09:45;;;;;;;8.15;3.30;;;8.00;99.90;;;;;;5043173;28;20740;-75
2022/01/09 08:12:14;;;;;;;6.50;1.20;;;8.00;99.90;;;;;;5043732;28;20180;-75
2022/01/09 08:14:42;;;;;;;9.60;1.10;;;8.00;99.90;;;;;;5041767;28;20173;-75
2022/01/09 08:17:07;;;;;;;7.65;3.05;;;8.00;99.90;;;;;;5041337;28;20170;-76
2022/01/09 08:19:35;;;;;;;6.77;2.83;;;8.00;99.90;;;;;;5038541;28;20224;-77
2022/01/09 08:22:02;;;;;;;5.68;1.42;;;8.10;99.90;;;;;;5042511;28;20587;-77
2022/01/09 08:24:28;;;;;;;7.25;1.30;;;8.00;99.90;;;;;;5051418;28;20173;-76
2022/01/09 08:26:54;;;;;;;6.93;1.40;;;8.00;99.90;;;;;;5037022;28;20169;-76
2022/01/09 08:29:19;;;;;;;9.60;1.80;;;8.10;99.90;;;;;;5050156;28;21104;-76
2022/01/09 08:31:45;;;;;;;7.03;1.63;;;8.00;99.90;;;;;;5051196;28;20573;-77
2022/01/09 08:34:11;;;;;;;3.87;1.40;;;8.00;99.90;;;;;;5051272;28;21087;-76
2022/01/09 08:36:38;;;;;;;7.10;1.20;;;8.00;99.90;;;;;;5052197;28;20567;-76
2022/01/09 08:39:05;;;;;;;7.47;1.65;;;8.10;99.90;;;;;;5055433;28;20200;-76
2022/01/09 08:41:34;;;;;;;2.78;1.40;;;8.10;99.90;;;;;;5054425;28;20222;-76
2022/01/09 08:44:04;;;;;;;6.18;1.80;;;8.10;99.90;;;;;;5054804;28;20183;-76
2022/01/09 08:46:31;;;;;;;5.05;3.33;;;8.10;99.90;;;;;;5047230;28;20177;-76
2022/01/09 08:48:58;;;;;;;10.25;2.20;;;8.10;99.90;;;;;;5051419;28;20304;-76
2022/01/09 08:51:24;;;;;;;4.53;2.05;;;8.10;99.90;;;;;;5044948;28;20653;-76
2022/01/09 08:53:50;;;;;;;5.63;1.90;;;8.20;99.90;;;;;;5046971;28;20184;-76
2022/01/09 08:56:20;;;;;;;4.68;1.95;;;8.20;99.90;;;;;;5044533;28;20618;-76
2022/01/09 08:58:47;;;;;;;5.93;2.45;;;8.20;99.90;;;;;;5033783;28;20716;-77
2022/01/09 09:01:13;;;;;;;7.55;2.25;;;8.30;99.90;;;;;;5033528;28;20186;-76
2022/01/09 09:03:41;;;;;;;6.47;1.73;;;8.30;99.90;;;;;;5033864;28;20169;-77
2022/01/09 09:06:15;;;;;;;4.78;1.92;;;8.30;99.90;;;;;;5033773;28;20173;-76
2022/01/09 09:08:42;;;;;;;6.70;2.13;;;8.40;99.90;;;;;;5033668;28;20324;-76
2022/01/09 09:11:10;;;;;;;4.28;1.90;;;8.50;99.90;;;;;;5033359;28;20249;-77
2022/01/09 09:13:37;;;;;;;6.13;1.80;;;8.50;99.90;;;;;;5035024;28;20165;-77
2022/01/09 09:16:04;;;;;;;7.18;1.75;;;8.60;99.90;;;;;;5033545;28;20170;-77
2022/01/09 09:18:30;;;;;;;4.82;1.60;;;8.60;99.90;;;;;;5035006;28;20276;-77
2022/01/09 09:20:56;;;;;;;5.00;2.27;;;8.70;99.90;;;;;;5038347;28;20731;-77
2022/01/09 09:23:24;;;;;;;7.13;1.85;;;8.80;99.90;;;;;;5033454;28;20584;-77
2022/01/09 09:25:50;;;;;;;9.20;2.95;;;8.90;99.90;;;;;;5034836;28;20170;-77
2022/01/09 09:28:16;;;;;;;8.17;2.63;;;8.90;99.90;;;;;;5033027;28;20577;-74
2022/01/09 09:30:42;;;;;;;11.30;2.63;;;8.90;99.90;;;;;;5034243;28;20576;-75
2022/01/09 09:33:08;;;;;;;6.20;2.70;;;9.00;99.90;;;;;;5034546;28;20178;-74
2022/01/09 09:35:35;;;;;;;4.32;1.45;;;9.10;99.90;;;;;;5034667;28;20724;-74
2022/01/09 09:38:04;;;;;;;3.75;2.50;;;9.10;99.90;;;;;;5033209;28;20200;-75
2022/01/09 09:40:30;;;;;;;2.55;1.30;;;9.10;99.90;;;;;;5030161;28;20253;-74
2022/01/09 09:42:56;;;;;;;8.60;1.60;;;9.10;99.90;;;;;;5033126;28;20256;-78
2022/01/09 09:45:23;;;;;;;3.80;1.30;;;9.20;99.90;;;;;;5034182;28;20946;-79
2022/01/09 09:47:50;;;;;;;4.88;2.08;;;9.20;99.90;;;;;;5032240;28;20193;-79
2022/01/09 09:50:17;;;;;;;10.02;2.00;;;9.30;99.90;;;;;;5034155;28;20211;-80
2022/01/09 09:52:44;;;;;;;6.28;1.92;;;9.40;99.90;;;;;;5033580;28;20170;-78
2022/01/09 09:55:11;;;;;;;6.50;1.48;;;9.50;99.90;;;;;;5036230;28;20176;-80
2022/01/09 09:57:37;;;;;;;5.78;1.90;;;9.50;99.90;;;;;;5040813;28;20217;-80
2022/01/09 10:00:10;;;;;;;11.75;2.25;;;9.60;99.90;;;;;;5033567;28;20668;-80
2022/01/09 10:02:49;;;;;;;4.78;1.85;;;9.60;99.90;;;;;;5033356;28;20196;-80
2022/01/09 10:05:33;;;;;;;4.65;2.00;;;9.60;99.90;;;;;;5032887;28;20247;-80
2022/01/09 10:08:15;;;;;;;8.00;2.42;;;9.60;99.90;;;;;;5034421;28;20553;-79
2022/01/09 10:10:43;;;;;;;5.00;1.73;;;9.60;99.90;;;;;;5032708;28;20166;-80
2022/01/09 10:13:16;;;;;;;3.08;1.35;;;9.60;99.90;;;;;;5034205;28;20158;-82
2022/01/09 10:15:48;;;;;;;3.60;1.40;;;9.50;99.90;;;;;;5034041;28;20631;-81
2022/01/09 10:18:34;;;;;;;4.07;1.35;;;9.50;99.90;;;;;;5033716;28;20666;-78
2022/01/09 10:21:09;;;;;;;3.85;1.23;;;9.50;99.90;;;;;;5033275;28;20204;-77
2022/01/09 10:24:06;;;;;;;2.85;1.33;;;9.50;99.90;;;;;;5033499;28;20255;-76
2022/01/09 10:26:35;;;;;;;5.47;1.30;;;9.40;99.90;;;;;;5033780;28;20161;-81
2022/01/09 10:29:06;;;;;;;4.15;1.42;;;9.40;99.90;;;;;;5033300;28;20217;-80
2022/01/09 10:31:44;;;;;;;4.18;1.77;;;9.40;99.90;;;;;;5033359;28;20165;-80
2022/01/09 10:34:10;;;;;;;7.90;1.88;;;9.30;99.90;;;;;;5039339;28;20169;-80
2022/01/09 10:36:41;;;;;;;4.63;1.40;;;9.30;99.90;;;;;;5015743;28;20637;-77
2022/01/09 10:39:19;;;;;;;3.70;1.40;;;9.30;99.90;;;;;;5033397;28;20601;-77
2022/01/09 10:42:14;;;;;;;7.68;1.60;;;9.30;99.90;;;;;;5031951;28;20668;-76
2022/01/09 10:44:43;;;;;;;7.22;1.35;;;9.30;99.90;;;;;;4999230;28;20235;-76
2022/01/09 10:47:12;;;;;;;2.25;1.30;;;9.30;99.90;;;;;;5040192;28;20185;-76
2022/01/09 10:49:52;;;;;;;8.52;2.70;;;9.30;99.90;;;;;;5041205;28;20296;-77
2022/01/09 10:52:25;;;;;;;4.68;1.63;;;9.30;99.90;;;;;;5050575;28;20211;-76
2022/01/09 10:55:03;;;;;;;4.97;2.03;;;9.30;99.90;;;;;;5036494;28;20164;-77
2022/01/09 10:57:32;;;;;;;9.90;2.33;;;9.30;99.90;;;;;;5044049;28;20187;-76
2022/01/09 11:00:10;;;;;;;6.15;2.35;;;9.30;99.90;;;;;;5049970;28;20177;-75
2022/01/09 11:02:37;;;;;;;6.57;1.95;;;9.30;99.90;;;;;;5050383;28;20195;-75
2022/01/09 11:05:04;;;;;;;5.43;1.67;;;9.30;99.90;;;;;;5050619;28;20173;-75
2022/01/09 11:07:30;;;;;;;6.78;2.05;;;9.30;99.90;;;;;;5062657;28;20173;-75
2022/01/09 11:09:58;;;;;;;7.45;2.10;;;9.30;99.90;;;;;;5064907;28;20200;-75
2022/01/09 11:12:31;;;;;;;6.78;1.80;;;9.40;99.90;;;;;;5066360;28;20241;-76
2022/01/09 11:15:01;;;;;;;4.05;2.10;;;9.40;99.90;;;;;;5054857;28;20535;-75
2022/01/09 11:17:28;;;;;;;5.07;2.17;;;9.30;99.90;;;;;;5053689;28;20169;-75
2022/01/09 11:19:54;;;;;;;5.57;1.83;;;9.40;99.90;;;;;;5053247;28;20169;-75
2022/01/09 11:22:21;;;;;;;4.50;1.80;;;9.40;99.90;;;;;;5052456;28;20169;-75
2022/01/09 11:24:56;;;;;;;12.32;2.72;;;9.40;99.90;;;;;;5054363;28;20642;-76
2022/01/09 11:27:54;;;;;;;6.07;2.25;;;9.40;99.90;;;;;;5052697;28;20195;-75
2022/01/09 11:30:45;;;;;;;7.63;2.45;;;9.40;99.90;;;;;;5045871;28;20752;-74
2022/01/09 11:33:26;;;;;;;9.63;2.25;;;9.40;99.90;;;;;;5038219;28;20185;-75
2022/01/09 11:36:20;;;;;;;3.97;2.20;;;9.40;99.90;;;;;;5053827;28;20169;-75
2022/01/09 11:38:55;;;;;;;7.47;2.47;;;9.50;99.90;;;;;;5051609;28;20722;-77
2022/01/09 11:41:26;;;;;;;3.72;1.95;;;9.40;99.90;;;;;;5052454;28;20578;-78
2022/01/09 11:43:55;;;;;;;5.63;2.40;;;9.50;99.90;;;;;;5034546;28;20200;-78
2022/01/09 11:46:21;;;;;;;5.50;1.80;;;9.50;99.90;;;;;;5052329;28;20169;-77
2022/01/09 11:48:52;;;;;;;6.45;2.38;;;9.50;99.90;;;;;;5056940;28;20205;-78
2022/01/09 11:51:26;;;;;;;2.22;1.70;;;9.50;99.90;;;;;;5051613;28;20165;-78
2022/01/09 11:54:15;;;;;;;7.40;1.95;;;9.60;99.90;;;;;;5051929;28;20256;-77
2022/01/09 11:56:47;;;;;;;5.85;2.05;;;9.60;99.90;;;;;;5051288;28;20567;-75
2022/01/09 11:59:19;;;;;;;4.53;2.88;;;9.70;99.90;;;;;;5050603;28;20196;-75
2022/01/09 12:01:50;;;;;;;6.10;2.30;;;9.70;99.90;;;;;;5051615;28;20753;-75
2022/01/09 12:04:34;;;;;;;5.85;2.60;;;9.70;99.90;;;;;;5051143;28;20184;-75
2022/01/09 12:07:00;;;;;;;9.85;4.05;;;9.80;99.90;;;;;;5034168;28;20184;-75
2022/01/09 12:09:33;;;;;;;15.70;8.07;;;9.80;99.90;;;;;;5051488;28;20255;-76
2022/01/09 12:12:09;;;;;;;10.23;4.28;;;9.90;99.90;;;;;;5033581;28;20645;-75
2022/01/09 12:17:21;;;;;;;7.85;2.88;;;10.00;99.90;;;;;;5051767;28;20230;-76
2022/01/09 12:20:12;;;;;;;5.68;2.10;;;10.10;99.90;;;;;;5051203;28;20169;-75
2022/01/09 12:22:48;;;;;;;7.45;2.40;;;10.20;99.90;;;;;;5051533;28;20226;-76
2022/01/09 12:25:23;;;;;;;6.50;2.92;;;10.30;99.90;;;;;;5054179;28;20183;-75
2022/01/09 12:27:53;;;;;;;9.48;3.58;;;10.40;99.90;;;;;;5051916;28;20200;-78
2022/01/09 12:33:25;;;;;;;7.97;2.22;;;10.60;99.90;;;;;;5050941;28;20764;-76
2022/01/09 12:35:59;;;;;;;5.15;2.05;;;10.50;99.90;;;;;;5050401;28;20218;-78
2022/01/09 12:38:28;;;;;;;5.40;2.55;;;10.50;99.90;;;;;;5051605;28;20193;-78
2022/01/09 12:41:07;;;;;;;8.20;2.88;;;10.50;99.90;;;;;;5049725;28;20184;-78
2022/01/09 12:43:34;;;;;;;9.15;3.55;;;10.50;99.90;;;;;;5051600;28;20165;-77
2022/01/09 12:46:12;;;;;;;5.38;2.65;;;10.50;99.90;;;;;;5051626;28;20227;-77
2022/01/09 12:48:40;;;;;;;6.75;2.42;;;10.50;99.90;;;;;;5051634;28;20643;-77
2022/01/09 12:51:09;;;;;;;4.97;2.42;;;10.50;99.90;;;;;;5033364;28;20257;-77
2022/01/09 12:53:41;;;;;;;7.30;2.33;;;10.50;99.90;;;;;;5051314;28;20169;-78
2022/01/09 12:56:09;;;;;;;6.47;3.60;;;10.40;99.90;;;;;;5050251;28;20231;-78
2022/01/09 12:58:37;;;;;;;10.43;3.47;;;10.40;99.90;;;;;;5050983;28;20537;-78
2022/01/09 13:05:01;;;;;;;5.05;3.47;;;10.40;99.90;;;;;;5002338;28;20178;-77
2022/01/09 13:07:27;;;;;;;8.13;3.50;;;10.30;99.90;;;;;;5011309;28;20635;-75
2022/01/09 13:09:53;;;;;;;7.63;3.40;;;10.30;99.90;;;;;;5010927;28;20256;-75
2022/01/09 13:12:22;;;;;;;8.00;3.20;;;10.20;99.90;;;;;;5011635;28;20604;-78
2022/01/09 13:14:47;;;;;;;6.22;2.25;;;10.20;99.90;;;;;;5010338;28;20185;-78